createdAt,value
2022-11-15T00:04:16.845Z,7.45
2022-11-15T00:09:55.211Z,7.20
2022-11-15T00:15:31.225Z,6.99
2022-11-15T00:21:09.395Z,7.09
2022-11-15T00:23:57.529Z,7.00
2022-11-15T00:29:26.860Z,7.26
2022-11-15T00:32:15.109Z,7.26
2022-11-15T00:37:55.645Z,7.41
2022-11-15T00:40:44.283Z,7.40
2022-11-15T00:43:44.634Z,7.38
2022-11-15T00:46:33.281Z,7.34
2022-11-15T00:52:06.535Z,7.57
2022-11-15T00:54:55.232Z,7.57
2022-11-15T00:57:43.205Z,7.65
2022-11-15T01:00:31.550Z,7.69
2022-11-15T01:06:02.975Z,7.84
2022-11-15T01:11:39.642Z,7.89
2022-11-15T01:17:08.217Z,7.92
2022-11-15T01:22:37.645Z,7.96
2022-11-15T01:28:12.844Z,7.93
2022-11-15T01:33:51.042Z,8.00
2022-11-15T01:39:22.154Z,7.94
2022-11-15T01:44:59.869Z,7.96
2022-11-15T01:47:51.074Z,7.97
2022-11-15T01:53:26.474Z,7.92
2022-11-15T01:59:00.369Z,7.81
2022-11-15T02:01:50.247Z,7.82
2022-11-15T02:07:26.059Z,8.01
2022-11-15T02:10:15.696Z,8.02
2022-11-15T02:15:59.092Z,8.12
2022-11-15T02:21:29.656Z,7.99
2022-11-15T02:24:30.753Z,7.96
2022-11-15T02:28:05.017Z,8.01
2022-11-15T02:33:45.201Z,8.11
2022-11-15T02:39:25.883Z,8.11
2022-11-15T02:45:07.125Z,7.99
2022-11-15T02:50:36.129Z,8.04
2022-11-15T02:56:12.650Z,8.13
2022-11-15T02:59:08.001Z,8.07
2022-11-15T03:02:06.468Z,8.13
2022-11-15T03:10:32.128Z,8.22
2022-11-15T03:13:25.679Z,8.21
2022-11-15T03:19:04.153Z,8.41
2022-11-15T03:21:53.545Z,8.38
2022-11-15T03:24:42.736Z,8.39
2022-11-15T03:27:33.114Z,8.32
2022-11-15T03:30:22.008Z,8.38
2022-11-15T03:35:58.074Z,8.24
2022-11-15T03:38:47.614Z,8.22
2022-11-15T03:44:24.184Z,8.33
2022-11-15T03:52:39.496Z,8.36
2022-11-15T03:55:27.956Z,8.34
2022-11-15T03:58:16.369Z,8.29
2022-11-15T04:03:46.818Z,8.15
2022-11-15T04:06:35.232Z,7.99
2022-11-15T04:12:10.121Z,7.98
2022-11-15T04:17:48.503Z,8.04
2022-11-15T04:20:54.433Z,7.86
2022-11-15T04:26:26.949Z,7.51
2022-11-15T04:29:33.130Z,7.37
2022-11-15T04:32:21.571Z,7.27
2022-11-15T04:37:57.622Z,7.29
2022-11-15T04:40:49.574Z,7.24
2022-11-15T04:43:37.831Z,7.17
2022-11-15T04:49:09.991Z,7.18
2022-11-15T04:51:58.022Z,7.19
2022-11-15T04:57:29.144Z,7.30
2022-11-15T05:03:23.371Z,7.24
2022-11-15T05:06:12.453Z,7.18
2022-11-15T05:11:43.369Z,7.24
2022-11-15T05:14:31.801Z,7.37
2022-11-15T05:20:09.099Z,7.26
2022-11-15T05:25:39.580Z,7.29
2022-11-15T05:31:15.508Z,7.35
2022-11-15T05:36:52.792Z,7.39
2022-11-15T05:39:43.666Z,7.31
2022-11-15T05:45:26.581Z,7.37
2022-11-15T05:48:13.394Z,7.37
2022-11-15T05:51:04.258Z,7.37
2022-11-15T05:53:53.574Z,7.37
2022-11-15T05:56:44.827Z,7.40
2022-11-15T06:02:24.135Z,7.59
2022-11-15T06:05:15.735Z,7.61
2022-11-15T06:08:04.161Z,7.63
2022-11-15T06:10:53.482Z,7.66
2022-11-15T06:13:42.153Z,7.66
2022-11-15T06:16:30.249Z,7.67
2022-11-15T06:19:19.332Z,7.71
2022-11-15T06:25:20.157Z,7.83
2022-11-15T06:30:54.846Z,7.80
2022-11-15T06:33:43.500Z,7.73
2022-11-15T06:39:20.119Z,7.85
2022-11-15T06:44:59.687Z,7.94
2022-11-15T06:50:34.268Z,8.08
2022-11-15T06:53:23.777Z,8.12
2022-11-15T06:56:11.994Z,8.21
2022-11-15T07:01:44.872Z,8.41
2022-11-15T07:12:11.988Z,8.75
2022-11-15T07:15:00.234Z,8.76
2022-11-15T07:17:49.065Z,8.82
2022-11-15T07:23:44.287Z,8.96
2022-11-15T07:29:35.873Z,9.05
2022-11-15T07:32:23.934Z,9.02
2022-11-15T07:38:01.101Z,8.93
2022-11-15T07:43:37.535Z,9.09
2022-11-15T07:52:36.739Z,9.42
2022-11-15T08:11:50.236Z,10.49
2022-11-15T08:14:39.457Z,10.64
2022-11-15T08:17:28.163Z,10.57
2022-11-15T08:25:51.969Z,10.59
2022-11-15T08:31:28.509Z,10.46
2022-11-15T08:34:18.337Z,10.57
2022-11-15T08:42:46.440Z,10.76
2022-11-15T08:48:21.094Z,10.87
2022-11-15T08:51:09.622Z,10.85
2022-11-15T08:53:58.294Z,10.90
2022-11-15T08:56:47.549Z,11.00
2022-11-15T09:02:23.543Z,11.12
2022-11-15T09:07:48.882Z,11.32
2022-11-15T09:10:37.415Z,11.24
2022-11-15T09:16:13.655Z,11.25
2022-11-15T09:19:01.986Z,10.82
2022-11-15T09:21:50.666Z,10.96
2022-11-15T09:27:24.941Z,11.06
2022-11-15T09:32:59.580Z,11.12
2022-11-15T09:35:47.966Z,11.11
2022-11-15T09:41:54.817Z,11.19
2022-11-15T09:54:37.473Z,11.49
2022-11-15T09:59:39.114Z,11.55
2022-11-15T10:08:18.763Z,11.68
2022-11-15T10:13:58.175Z,11.68
2022-11-15T10:19:41.770Z,11.93
2022-11-15T10:25:20.671Z,11.99
2022-11-15T10:33:42.662Z,12.34
2022-11-15T10:39:16.924Z,12.43
2022-11-15T10:45:25.208Z,12.43
2022-11-15T10:51:13.277Z,12.34
2022-11-15T10:56:54.039Z,12.31
2022-11-15T11:02:36.561Z,12.30
2022-11-15T11:08:25.590Z,12.27
2022-11-15T11:13:54.146Z,12.23
2022-11-15T11:19:51.593Z,12.26
2022-11-15T11:25:30.589Z,12.46
2022-11-15T11:31:17.354Z,12.72
2022-11-15T11:36:55.781Z,12.95
2022-11-15T11:42:38.081Z,13.02
2022-11-15T11:51:02.549Z,13.11
2022-11-15T11:56:48.206Z,13.12
2022-11-15T12:02:29.997Z,13.20
2022-11-15T12:08:25.024Z,13.13
2022-11-15T12:14:06.238Z,13.01
2022-11-15T12:19:45.597Z,12.94
2022-11-15T12:25:29.950Z,12.96
2022-11-15T12:31:15.015Z,12.62
2022-11-15T12:38:10.938Z,12.63
2022-11-15T12:44:06.261Z,12.62
2022-11-15T12:49:50.215Z,12.66
2022-11-15T12:58:45.447Z,12.51
2022-11-15T13:05:19.194Z,12.50
2022-11-15T13:10:57.132Z,12.60
2022-11-15T13:16:30.346Z,12.49
2022-11-15T13:19:18.475Z,12.51
2022-11-15T13:24:49.085Z,12.51
2022-11-15T13:30:24.636Z,12.15
2022-11-15T13:36:05.686Z,12.00
2022-11-15T13:41:53.326Z,11.98
2022-11-15T13:47:30.027Z,11.99
2022-11-15T13:53:08.028Z,12.05
2022-11-15T13:58:48.646Z,11.91
2022-11-15T14:01:37.585Z,11.91
2022-11-15T14:07:17.598Z,11.83
2022-11-15T14:16:36.203Z,12.12
2022-11-15T14:19:39.342Z,11.89
2022-11-15T14:25:23.913Z,12.02
2022-11-15T14:28:18.772Z,11.89
2022-11-15T14:33:51.348Z,12.02
2022-11-15T14:36:40.087Z,11.99
2022-11-15T14:39:28.875Z,12.00
2022-11-15T14:47:43.717Z,12.09
2022-11-15T14:53:18.977Z,12.11
2022-11-15T14:56:07.777Z,12.08
2022-11-15T15:04:30.865Z,11.83
2022-11-15T15:15:41.545Z,11.72
2022-11-15T15:18:29.792Z,11.68
2022-11-15T15:24:10.779Z,11.62
2022-11-15T15:29:43.623Z,11.68
2022-11-15T15:32:32.070Z,11.42
2022-11-15T15:38:06.307Z,11.50
2022-11-15T15:43:41.183Z,11.52
2022-11-15T15:49:16.285Z,11.23
2022-11-15T15:52:05.613Z,11.14
2022-11-15T15:57:42.499Z,11.22
2022-11-15T16:03:13.168Z,11.22
2022-11-15T16:09:00.291Z,11.13
2022-11-15T16:14:12.815Z,11.10
2022-11-15T16:19:46.445Z,11.11
2022-11-15T16:25:13.497Z,11.07
2022-11-15T16:28:01.795Z,10.94
2022-11-15T16:33:28.226Z,11.19
2022-11-15T16:38:58.402Z,11.06
2022-11-15T16:44:33.418Z,11.09
2022-11-15T16:52:57.243Z,11.20
2022-11-15T16:58:33.599Z,11.34
2022-11-15T17:04:13.285Z,10.99
2022-11-15T17:07:01.451Z,10.92
2022-11-15T17:09:50.556Z,10.96
2022-11-15T17:15:21.278Z,11.00
2022-11-15T17:20:53.383Z,11.01
2022-11-15T17:26:32.998Z,11.08
2022-11-15T17:34:39.827Z,10.95
2022-11-15T17:42:54.833Z,11.07
2022-11-15T17:49:06.829Z,11.03
2022-11-15T17:57:51.911Z,10.84
2022-11-15T18:01:26.379Z,11.05
2022-11-15T18:07:02.132Z,10.87
2022-11-15T18:09:50.768Z,10.87
2022-11-15T18:15:19.132Z,10.77
2022-11-15T18:18:11.444Z,10.76
2022-11-15T18:21:04.906Z,10.81
2022-11-15T18:29:21.785Z,10.90
2022-11-15T18:32:13.732Z,10.89
2022-11-15T18:37:41.777Z,10.72
2022-11-15T18:40:30.145Z,10.68
2022-11-15T18:46:09.929Z,10.77
2022-11-15T18:51:46.372Z,10.80
2022-11-15T18:57:12.821Z,10.82
2022-11-15T19:02:48.781Z,10.71
2022-11-15T19:08:18.321Z,10.69
2022-11-15T19:13:57.440Z,10.66
2022-11-15T19:16:49.877Z,10.58
2022-11-15T19:24:58.361Z,10.56
2022-11-15T19:30:26.176Z,10.45
2022-11-15T19:33:14.533Z,10.37
2022-11-15T19:38:50.436Z,10.33
2022-11-15T19:41:42.304Z,10.36
2022-11-15T19:44:30.609Z,10.33
2022-11-15T19:47:20.772Z,10.38
2022-11-15T19:50:13.078Z,10.38
2022-11-15T19:55:55.654Z,10.53
2022-11-15T19:58:47.269Z,10.45
2022-11-15T20:01:39.444Z,10.37
2022-11-15T20:04:31.164Z,10.38
2022-11-15T20:10:07.105Z,10.35
2022-11-15T20:15:45.163Z,10.36
2022-11-15T20:24:01.228Z,10.19
2022-11-15T20:35:09.743Z,9.67
2022-11-15T20:40:57.408Z,9.54
2022-11-15T20:46:24.452Z,9.39
2022-11-15T20:54:42.898Z,9.32
2022-11-15T20:57:31.491Z,9.19
2022-11-15T21:00:23.986Z,9.13
2022-11-15T21:03:12.849Z,9.24
2022-11-15T21:08:59.796Z,9.30
2022-11-15T21:12:05.991Z,9.31
2022-11-15T21:14:58.788Z,9.14
2022-11-15T21:20:35.581Z,9.22
2022-11-15T21:26:05.660Z,9.47
2022-11-15T21:34:35.195Z,9.57
2022-11-15T21:40:13.521Z,9.70
2022-11-15T21:45:46.711Z,9.56
2022-11-15T21:48:39.546Z,9.54
2022-11-15T21:51:28.955Z,9.64
2022-11-15T21:54:18.676Z,9.63
2022-11-15T22:00:22.626Z,9.81
2022-11-15T22:05:55.213Z,9.82
2022-11-15T22:11:35.378Z,9.66
2022-11-15T22:14:26.862Z,9.59
2022-11-15T22:20:16.589Z,9.67
2022-11-15T22:22:53.411Z,9.60
2022-11-15T22:28:28.565Z,9.70
2022-11-15T22:34:10.359Z,9.79
2022-11-15T22:39:47.779Z,10.02
2022-11-15T22:45:25.154Z,9.80
2022-11-15T22:51:00.353Z,9.61
2022-11-15T22:53:51.787Z,9.53
2022-11-15T22:59:26.016Z,9.62
2022-11-15T23:05:00.653Z,9.51
2022-11-15T23:07:52.054Z,9.50
2022-11-15T23:13:31.853Z,9.67
2022-11-15T23:16:23.389Z,9.64
2022-11-15T23:19:13.185Z,9.68
2022-11-15T23:22:19.135Z,9.59
2022-11-15T23:27:49.984Z,9.76
2022-11-15T23:33:46.888Z,9.75
2022-11-15T23:39:20.553Z,9.74
2022-11-15T23:42:11.042Z,9.75
2022-11-15T23:44:59.400Z,9.71
2022-11-15T23:47:47.770Z,9.75
2022-11-15T23:53:27.470Z,9.75
2022-11-15T23:56:18.533Z,9.78
